Terminal Aerodrome Forecast
Issued by NWS

Home | Current Version | Previous Version | Text Only | Print | Product List | Glossary On
Versions: 1 2 3 4 5 6 7 8 9 10 11 12 13
000
FTUS45 KVEF 311700
TAFDAG
TAF
KDAG 311736Z 3118/0118 33005KT P6SM BKN050
     FM312100 01008KT P6SM FEW050 SCT080
     FM010300 27007KT P6SM FEW100=

USA.gov is the U.S. government's official web portal to all federal, state and local government web resources and services.